createdAt,value
2018-09-15T00:00:52.701Z,17.60
2018-09-15T00:01:52.718Z,20.60
2018-09-15T00:02:52.748Z,19.60
2018-09-15T00:03:52.751Z,18.40
2018-09-15T00:04:52.776Z,18.90
2018-09-15T00:05:52.789Z,17.40
2018-09-15T00:06:52.804Z,19.00
2018-09-15T00:07:52.824Z,18.20
2018-09-15T00:08:52.842Z,21.40
2018-09-15T00:09:52.861Z,24.70
2018-09-15T00:10:52.888Z,18.80
2018-09-15T00:11:52.899Z,18.10
2018-09-15T00:12:52.911Z,17.00
2018-09-15T00:13:52.927Z,19.30
2018-09-15T00:14:52.954Z,20.70
2018-09-15T00:15:52.969Z,17.70
2018-09-15T00:16:52.984Z,21.00
2018-09-15T00:17:52.999Z,17.20
2018-09-15T00:18:53.026Z,17.80
2018-09-15T00:19:53.029Z,17.10
2018-09-15T00:20:53.059Z,16.90
2018-09-15T00:21:53.071Z,17.90
2018-09-15T00:22:53.160Z,21.70
2018-09-15T00:23:53.108Z,17.30
2018-09-15T00:24:53.121Z,17.50
2018-09-15T00:25:53.145Z,17.20
2018-09-15T00:26:53.157Z,15.20
2018-09-15T00:27:53.168Z,18.40
2018-09-15T00:28:53.192Z,15.10
2018-09-15T00:29:53.207Z,18.00
2018-09-15T00:30:53.245Z,21.90
2018-09-15T00:31:53.242Z,17.60
2018-09-15T00:32:53.258Z,16.90
2018-09-15T00:33:53.275Z,20.20
2018-09-15T00:34:53.294Z,15.60
2018-09-15T00:35:53.310Z,15.30
2018-09-15T00:36:53.335Z,17.80
2018-09-15T00:37:53.349Z,19.60
2018-09-15T00:38:53.424Z,21.50
2018-09-15T00:39:53.386Z,16.80
2018-09-15T00:40:53.398Z,19.10
2018-09-15T00:41:53.442Z,20.10
2018-09-15T00:42:53.435Z,19.30
2018-09-15T00:43:53.454Z,18.80
2018-09-15T00:44:53.485Z,20.80
2018-09-15T00:45:53.489Z,19.30
2018-09-15T00:46:53.510Z,21.80
2018-09-15T00:47:53.528Z,20.60
2018-09-15T00:48:53.542Z,21.00
2018-09-15T00:49:53.556Z,21.40
2018-09-15T00:50:53.592Z,21.50
2018-09-15T00:51:53.597Z,19.50
2018-09-15T00:52:53.610Z,20.60
2018-09-15T00:53:53.627Z,21.70
2018-09-15T00:54:53.646Z,22.80
2018-09-15T00:55:53.660Z,20.70
2018-09-15T00:56:53.685Z,22.70
2018-09-15T00:57:53.697Z,26.80
2018-09-15T00:58:53.723Z,21.30
2018-09-15T00:59:53.739Z,19.60
2018-09-15T01:00:53.748Z,23.60
2018-09-15T01:01:53.768Z,17.70
2018-09-15T01:02:53.789Z,24.50
2018-09-15T01:03:53.804Z,19.70
2018-09-15T01:04:53.840Z,21.80
2018-09-15T01:05:53.839Z,21.20
2018-09-15T01:06:53.854Z,20.00
2018-09-15T01:07:53.871Z,22.40
2018-09-15T01:08:53.906Z,19.50
2018-09-15T01:09:53.905Z,20.90
2018-09-15T01:10:53.933Z,20.20
2018-09-15T01:11:53.954Z,24.90
2018-09-15T01:12:53.966Z,24.60
2018-09-15T01:13:54.017Z,21.00
2018-09-15T01:14:53.997Z,23.20
2018-09-15T01:15:54.027Z,20.90
2018-09-15T01:16:54.034Z,24.30
2018-09-15T01:17:54.052Z,22.80
2018-09-15T01:18:54.071Z,23.30
2018-09-15T01:19:54.118Z,24.40
2018-09-15T01:20:54.099Z,21.90
2018-09-15T01:21:54.128Z,25.30
2018-09-15T01:22:54.139Z,22.50
2018-09-15T01:23:54.157Z,21.10
2018-09-15T01:24:54.174Z,22.50
2018-09-15T01:25:54.208Z,24.90
2018-09-15T01:26:54.267Z,21.40
2018-09-15T01:27:54.232Z,27.10
2018-09-15T01:28:54.248Z,19.50
2018-09-15T01:29:54.271Z,28.80
2018-09-15T01:30:54.276Z,25.10
2018-09-15T01:31:54.300Z,20.60
2018-09-15T01:32:54.313Z,19.70
2018-09-15T01:33:54.331Z,20.90
2018-09-15T01:34:54.361Z,24.00
2018-09-15T01:35:54.375Z,21.30
2018-09-15T01:36:54.383Z,28.10
2018-09-15T01:37:54.403Z,19.80
2018-09-15T01:38:54.430Z,22.60
2018-09-15T01:39:54.488Z,25.20
2018-09-15T01:40:54.455Z,20.80
2018-09-15T01:41:54.473Z,23.00
2018-09-15T01:42:54.488Z,23.70
2018-09-15T01:43:54.507Z,19.70
2018-09-15T01:44:54.548Z,22.70
2018-09-15T01:45:54.547Z,24.40
2018-09-15T01:46:54.562Z,24.20
2018-09-15T01:47:54.578Z,25.60
2018-09-15T01:48:54.603Z,21.70
2018-09-15T01:49:54.673Z,21.80
2018-09-15T01:50:54.628Z,27.50
2018-09-15T01:51:54.648Z,24.00
2018-09-15T01:52:54.673Z,22.30
2018-09-15T01:53:54.678Z,27.40
2018-09-15T01:54:54.699Z,23.20
2018-09-15T01:55:54.714Z,21.20
2018-09-15T01:56:54.733Z,19.90
2018-09-15T01:57:54.757Z,21.00
2018-09-15T01:58:54.768Z,23.50
2018-09-15T01:59:54.781Z,25.60
2018-09-15T02:00:54.828Z,24.50
2018-09-15T02:01:54.822Z,25.10
2018-09-15T02:02:54.834Z,23.60
2018-09-15T02:03:54.853Z,24.20
2018-09-15T02:04:54.870Z,22.40
2018-09-15T02:05:54.888Z,22.70
2018-09-15T02:06:54.919Z,26.90
2018-09-15T02:07:54.924Z,22.00
2018-09-15T02:08:54.941Z,22.20
2018-09-15T02:09:54.961Z,24.80
2018-09-15T02:10:54.975Z,21.90
2018-09-15T02:11:54.994Z,21.60
2018-09-15T02:12:55.008Z,22.20
2018-09-15T02:13:55.033Z,23.40
2018-09-15T02:14:55.047Z,27.40
2018-09-15T02:15:55.068Z,21.50
2018-09-15T02:16:55.078Z,25.30
2018-09-15T02:17:55.096Z,23.70
2018-09-15T02:18:55.119Z,20.10
2018-09-15T02:19:55.133Z,20.20
2018-09-15T02:20:55.156Z,19.80
2018-09-15T02:21:55.174Z,20.60
2018-09-15T02:22:55.193Z,21.60
2018-09-15T02:23:55.203Z,18.10
2018-09-15T02:24:55.223Z,21.40
2018-09-15T02:25:55.244Z,19.50
2018-09-15T02:26:55.256Z,19.90
2018-09-15T02:27:55.267Z,20.30
2018-09-15T02:28:55.301Z,22.00
2018-09-15T02:29:55.305Z,18.30
2018-09-15T02:30:55.333Z,20.20
2018-09-15T02:31:55.343Z,21.00
2018-09-15T02:32:55.356Z,18.70
2018-09-15T02:33:55.378Z,22.20
2018-09-15T02:34:55.402Z,20.50
2018-09-15T02:35:55.420Z,22.90
2018-09-15T02:36:55.434Z,21.20
2018-09-15T02:37:55.453Z,20.60
2018-09-15T02:38:55.466Z,19.00
2018-09-15T02:39:55.482Z,21.20
2018-09-15T02:40:55.500Z,21.30
2018-09-15T02:41:55.528Z,19.50
2018-09-15T02:42:55.539Z,21.00
2018-09-15T02:43:55.549Z,18.60
2018-09-15T02:44:55.568Z,20.10
2018-09-15T02:45:55.591Z,18.90
2018-09-15T02:46:55.601Z,20.40
2018-09-15T02:47:55.623Z,23.20
2018-09-15T02:48:55.635Z,20.00
2018-09-15T02:49:55.669Z,20.60
2018-09-15T02:50:55.670Z,19.20
2018-09-15T02:51:55.684Z,18.40
2018-09-15T02:52:55.716Z,21.80
2018-09-15T02:53:55.729Z,19.90
2018-09-15T02:54:55.804Z,18.60
2018-09-15T02:55:55.755Z,18.60
2018-09-15T02:56:55.775Z,21.00
2018-09-15T02:57:55.789Z,25.60
2018-09-15T02:58:55.810Z,27.00
2018-09-15T02:59:55.825Z,21.70
2018-09-15T03:00:55.844Z,19.90
2018-09-15T03:01:55.862Z,20.60
2018-09-15T03:02:55.894Z,22.30
2018-09-15T03:03:55.902Z,23.30
2018-09-15T03:04:55.918Z,20.80
2018-09-15T03:05:55.983Z,19.70
2018-09-15T03:06:55.953Z,21.50
2018-09-15T03:07:55.967Z,19.80
2018-09-15T03:08:55.983Z,22.90
2018-09-15T03:09:56.006Z,23.10
2018-09-15T03:10:56.088Z,20.20
2018-09-15T03:11:56.035Z,22.00
2018-09-15T03:12:56.048Z,19.40
2018-09-15T03:13:56.073Z,25.50
2018-09-15T03:14:56.083Z,21.90
2018-09-15T03:15:56.106Z,22.30
2018-09-15T03:16:56.118Z,27.90
2018-09-15T03:17:56.132Z,21.80
2018-09-15T03:18:56.157Z,19.50
2018-09-15T03:19:56.170Z,18.50
2018-09-15T03:20:56.187Z,20.70
2018-09-15T03:21:56.209Z,24.40
2018-09-15T03:22:56.231Z,19.10
2018-09-15T03:23:56.236Z,20.40
2018-09-15T03:24:56.261Z,22.50
2018-09-15T03:25:56.276Z,25.90
2018-09-15T03:26:56.291Z,23.40
2018-09-15T03:27:56.304Z,24.80
2018-09-15T03:28:56.327Z,22.40
2018-09-15T03:29:56.342Z,20.50
2018-09-15T03:30:56.359Z,21.00
2018-09-15T03:31:56.379Z,23.50
2018-09-15T03:32:56.391Z,21.00
2018-09-15T03:33:56.415Z,24.40
2018-09-15T03:34:56.429Z,25.50
2018-09-15T03:35:56.446Z,23.20
2018-09-15T03:36:56.459Z,23.40
2018-09-15T03:37:56.477Z,21.10
2018-09-15T03:38:56.497Z,25.40
2018-09-15T03:39:56.515Z,24.50
2018-09-15T03:40:56.528Z,23.40
2018-09-15T03:41:56.619Z,20.00
2018-09-15T03:42:56.570Z,19.60
2018-09-15T03:43:56.588Z,23.70
2018-09-15T03:44:56.606Z,23.60
2018-09-15T03:45:56.614Z,21.00
2018-09-15T03:46:56.633Z,21.90
2018-09-15T03:47:56.643Z,25.90
2018-09-15T03:48:56.668Z,31.00
2018-09-15T03:49:56.681Z,20.50
2018-09-15T03:50:56.702Z,22.20
2018-09-15T03:51:56.721Z,21.50
2018-09-15T03:52:56.734Z,21.60
2018-09-15T03:53:56.756Z,22.20
2018-09-15T03:54:56.771Z,19.20
2018-09-15T03:55:56.787Z,23.80
2018-09-15T03:56:56.801Z,19.20
2018-09-15T03:57:56.823Z,21.20
2018-09-15T03:58:56.837Z,18.40
2018-09-15T03:59:56.883Z,18.70
2018-09-15T04:00:56.868Z,21.90
2018-09-15T04:01:56.906Z,19.80
2018-09-15T04:02:56.909Z,20.80
2018-09-15T04:03:56.921Z,21.20
2018-09-15T04:04:56.942Z,21.00
2018-09-15T04:05:56.952Z,19.70
2018-09-15T04:06:56.966Z,22.80
2018-09-15T04:07:56.993Z,23.70
2018-09-15T04:08:57.030Z,22.30
2018-09-15T04:09:57.020Z,18.80
2018-09-15T04:10:57.062Z,19.10
2018-09-15T04:11:57.051Z,21.70
2018-09-15T04:12:57.069Z,24.20
2018-09-15T04:13:57.096Z,19.00
2018-09-15T04:14:57.115Z,23.30
2018-09-15T04:15:57.120Z,19.90
2018-09-15T04:16:57.136Z,23.00
2018-09-15T04:17:57.157Z,25.20
2018-09-15T04:18:57.172Z,21.80
2018-09-15T04:19:57.193Z,21.10
2018-09-15T04:20:57.202Z,21.60
2018-09-15T04:21:57.221Z,21.10
2018-09-15T04:22:57.238Z,22.50
2018-09-15T04:23:57.256Z,25.00
2018-09-15T04:24:57.269Z,20.10
2018-09-15T04:25:57.289Z,17.30
2018-09-15T04:26:57.303Z,25.90
2018-09-15T04:27:57.323Z,20.80
2018-09-15T04:28:57.336Z,23.80
2018-09-15T04:29:57.355Z,21.50
2018-09-15T04:30:57.389Z,20.30
2018-09-15T04:31:57.395Z,24.40
2018-09-15T04:32:57.407Z,20.60
2018-09-15T04:33:57.421Z,23.40
2018-09-15T04:34:57.447Z,21.80
2018-09-15T04:35:57.462Z,23.00
2018-09-15T04:36:57.482Z,20.70
2018-09-15T04:37:57.491Z,20.10
2018-09-15T04:38:57.510Z,22.70
2018-09-15T04:39:57.525Z,22.20
2018-09-15T04:40:57.540Z,20.20
2018-09-15T04:41:57.563Z,20.90
2018-09-15T04:42:57.589Z,20.40
2018-09-15T04:43:57.591Z,20.60
2018-09-15T04:44:57.616Z,23.10
2018-09-15T04:45:57.622Z,23.80
2018-09-15T04:46:57.641Z,21.10
2018-09-15T04:47:57.664Z,22.40
2018-09-15T04:48:57.673Z,19.40
2018-09-15T04:49:57.713Z,21.50
2018-09-15T04:50:57.717Z,26.90
2018-09-15T04:51:57.743Z,24.10
2018-09-15T04:52:57.744Z,24.00
2018-09-15T04:53:57.756Z,25.60
2018-09-15T04:54:57.789Z,25.60
2018-09-15T04:55:57.792Z,22.00
2018-09-15T04:56:57.811Z,20.70
2018-09-15T04:57:57.839Z,24.30
2018-09-15T04:58:57.860Z,24.70
2018-09-15T04:59:57.877Z,25.30
2018-09-15T05:00:57.877Z,24.50
2018-09-15T05:01:57.893Z,22.20
2018-09-15T05:02:57.910Z,22.00
2018-09-15T05:03:57.925Z,21.70
2018-09-15T05:04:57.952Z,24.00
2018-09-15T05:05:57.965Z,21.50
2018-09-15T05:06:57.980Z,26.60
2018-09-15T05:07:58.004Z,21.80
2018-09-15T05:08:58.030Z,19.10
2018-09-15T05:09:58.043Z,20.50
2018-09-15T05:10:58.057Z,22.00
2018-09-15T05:11:58.067Z,22.50
2018-09-15T05:12:58.117Z,24.60
2018-09-15T05:13:58.106Z,21.60
2018-09-15T05:14:58.114Z,22.60
2018-09-15T05:15:58.143Z,26.10
2018-09-15T05:16:58.148Z,22.80
2018-09-15T05:17:58.165Z,22.60
2018-09-15T05:18:58.217Z,20.90
2018-09-15T05:19:58.234Z,21.20
2018-09-15T05:20:58.212Z,23.00
2018-09-15T05:21:58.238Z,20.60
2018-09-15T05:22:58.264Z,25.00
2018-09-15T05:23:58.267Z,23.10
2018-09-15T05:24:58.279Z,21.70
2018-09-15T05:25:58.302Z,22.20
2018-09-15T05:26:58.316Z,22.30
2018-09-15T05:27:58.332Z,21.80
2018-09-15T05:28:58.354Z,21.00
2018-09-15T05:29:58.368Z,18.80
2018-09-15T05:30:58.397Z,18.30
2018-09-15T05:31:58.405Z,23.70
2018-09-15T05:32:58.418Z,20.20
2018-09-15T05:33:58.432Z,22.00
2018-09-15T05:34:58.453Z,19.90
2018-09-15T05:35:58.472Z,20.60
2018-09-15T05:36:58.484Z,24.80
2018-09-15T05:37:58.510Z,22.50
2018-09-15T05:38:58.525Z,27.20
2018-09-15T05:39:58.562Z,20.80
2018-09-15T05:40:58.558Z,20.80
2018-09-15T05:41:58.568Z,21.00
2018-09-15T05:42:58.595Z,23.40
2018-09-15T05:43:58.603Z,24.50
2018-09-15T05:44:58.623Z,25.20
2018-09-15T05:45:58.644Z,19.20
2018-09-15T05:46:58.664Z,20.30
2018-09-15T05:47:58.675Z,20.20
2018-09-15T05:48:58.692Z,19.80
2018-09-15T05:49:58.713Z,24.30
2018-09-15T05:50:58.729Z,19.60
2018-09-15T05:51:58.745Z,23.20
2018-09-15T05:52:58.762Z,18.50
2018-09-15T05:53:58.779Z,20.00
2018-09-15T05:54:58.801Z,18.70
2018-09-15T05:55:58.843Z,18.70
2018-09-15T05:56:58.847Z,22.10
2018-09-15T05:57:58.848Z,18.10
2018-09-15T05:58:58.878Z,18.20
2018-09-15T05:59:58.890Z,23.90
2018-09-15T06:00:58.904Z,17.30
2018-09-15T06:01:58.949Z,17.30
2018-09-15T06:02:58.939Z,16.60
2018-09-15T06:03:58.962Z,19.40
2018-09-15T06:04:58.978Z,19.20
2018-09-15T06:05:59.002Z,16.60
2018-09-15T06:06:59.019Z,16.90
2018-09-15T06:07:59.044Z,17.90
2018-09-15T06:08:59.057Z,17.40
2018-09-15T06:09:59.076Z,16.80
2018-09-15T06:10:59.105Z,17.80
2018-09-15T06:11:59.115Z,17.10
2018-09-15T06:12:59.137Z,16.60
2018-09-15T06:13:59.163Z,15.70
2018-09-15T06:14:59.179Z,15.70
2018-09-15T06:15:59.201Z,16.40
2018-09-15T06:16:59.221Z,15.60
2018-09-15T06:17:59.256Z,13.30
2018-09-15T06:18:59.263Z,15.90
2018-09-15T06:19:59.283Z,13.60
2018-09-15T06:20:59.309Z,14.50
2018-09-15T06:21:59.327Z,14.60
2018-09-15T06:22:59.363Z,14.20
2018-09-15T06:23:59.371Z,13.50
2018-09-15T06:24:59.405Z,14.40
2018-09-15T06:25:59.436Z,15.80
2018-09-15T06:26:59.452Z,13.40
2018-09-15T06:27:59.466Z,14.20
2018-09-15T06:28:59.490Z,14.00
2018-09-15T06:29:59.519Z,15.50
2018-09-15T06:30:59.589Z,13.80
2018-09-15T06:31:59.559Z,16.10
2018-09-15T06:32:59.583Z,14.00
2018-09-15T06:33:59.603Z,16.30
2018-09-15T06:34:59.636Z,13.60
2018-09-15T06:35:59.653Z,14.50
2018-09-15T06:36:59.688Z,12.90
2018-09-15T06:37:59.696Z,11.70
2018-09-15T06:38:59.723Z,11.80
2018-09-15T06:39:59.745Z,12.80
2018-09-15T06:40:59.772Z,15.60
2018-09-15T06:41:59.798Z,12.30
2018-09-15T06:42:59.833Z,13.80
2018-09-15T06:43:59.855Z,12.50
2018-09-15T06:44:59.869Z,13.20
2018-09-15T06:45:59.909Z,15.50
2018-09-15T06:46:59.921Z,14.50
2018-09-15T06:47:59.940Z,13.40
2018-09-15T06:48:59.968Z,13.50
2018-09-15T06:49:59.993Z,14.80
2018-09-15T06:51:00.015Z,11.80
2018-09-15T06:52:00.041Z,11.30
2018-09-15T06:53:00.066Z,13.40
2018-09-15T06:54:00.094Z,12.20
2018-09-15T06:55:00.120Z,12.30
2018-09-15T06:56:00.145Z,13.30
2018-09-15T06:57:00.164Z,13.80
2018-09-15T06:58:00.196Z,13.10
2018-09-15T06:59:00.215Z,15.10
2018-09-15T07:00:00.241Z,11.70
2018-09-15T07:01:00.274Z,13.00
2018-09-15T07:02:00.298Z,12.60
2018-09-15T07:03:00.323Z,12.30
2018-09-15T07:04:00.347Z,14.20
2018-09-15T07:05:00.385Z,11.70
2018-09-15T07:06:00.411Z,13.80
2018-09-15T07:07:00.503Z,13.40
2018-09-15T07:08:00.475Z,12.30
2018-09-15T07:09:00.480Z,16.90
2018-09-15T07:10:00.515Z,11.90
2018-09-15T07:11:00.522Z,13.70
2018-09-15T07:12:00.547Z,12.00
2018-09-15T07:13:00.628Z,12.10
2018-09-15T07:14:00.593Z,12.10
2018-09-15T07:15:00.622Z,14.40
2018-09-15T07:16:00.650Z,13.20
2018-09-15T07:17:00.682Z,14.50
2018-09-15T07:18:00.701Z,13.10
2018-09-15T07:19:00.726Z,11.30
2018-09-15T07:20:00.754Z,11.80
2018-09-15T07:21:00.778Z,10.10
2018-09-15T07:22:00.799Z,9.80
2018-09-15T07:23:00.825Z,11.00
2018-09-15T07:24:00.845Z,15.10
2018-09-15T07:25:00.872Z,11.00
2018-09-15T07:26:01.001Z,17.50
2018-09-15T07:27:00.930Z,11.60
2018-09-15T07:28:00.952Z,11.00
2018-09-15T07:29:00.978Z,10.30
2018-09-15T07:30:01.004Z,10.80
2018-09-15T07:31:01.028Z,12.30
2018-09-15T07:32:01.133Z,13.00
2018-09-15T07:33:01.076Z,10.90
2018-09-15T07:34:01.114Z,8.90
2018-09-15T07:35:01.132Z,12.60
2018-09-15T07:36:01.151Z,9.90
2018-09-15T07:37:01.178Z,8.50
2018-09-15T07:38:01.213Z,10.40
2018-09-15T07:39:01.238Z,8.60
2018-09-15T07:40:01.260Z,11.10
2018-09-15T07:41:01.293Z,9.00
2018-09-15T07:42:01.312Z,10.40
2018-09-15T07:43:01.341Z,11.30
2018-09-15T07:44:01.362Z,9.10
2018-09-15T07:45:01.383Z,7.30
2018-09-15T07:46:01.412Z,7.70
2018-09-15T07:47:01.441Z,7.00
2018-09-15T07:48:01.458Z,11.00
2018-09-15T07:49:01.506Z,9.70
2018-09-15T07:50:01.510Z,10.10
2018-09-15T07:51:01.534Z,8.10
2018-09-15T07:52:01.560Z,7.90
2018-09-15T07:53:01.594Z,9.50
2018-09-15T07:54:01.611Z,7.90
2018-09-15T07:55:01.636Z,12.30
2018-09-15T07:56:01.658Z,6.70
2018-09-15T07:57:01.682Z,8.90
2018-09-15T07:58:01.780Z,14.80
2018-09-15T07:59:01.739Z,8.10
2018-09-15T08:00:01.762Z,7.10
2018-09-15T08:01:01.787Z,8.00
2018-09-15T08:02:01.855Z,7.00
2018-09-15T08:03:01.846Z,7.20
2018-09-15T08:04:01.858Z,7.10
2018-09-15T08:05:01.886Z,8.40
2018-09-15T08:06:01.908Z,10.40
2018-09-15T08:07:01.932Z,6.30
2018-09-15T08:08:01.955Z,7.30
2018-09-15T08:09:01.984Z,7.40
2018-09-15T08:10:02.004Z,6.90
2018-09-15T08:11:02.077Z,8.50
2018-09-15T08:12:02.059Z,7.70
2018-09-15T08:13:02.085Z,6.50
2018-09-15T08:14:02.112Z,7.70
2018-09-15T08:15:02.137Z,11.00
2018-09-15T08:16:02.158Z,10.00
2018-09-15T08:17:02.186Z,5.60
2018-09-15T08:18:02.208Z,8.50
2018-09-15T08:19:02.246Z,6.70
2018-09-15T08:20:02.262Z,7.70
2018-09-15T08:21:02.288Z,8.50
2018-09-15T08:22:02.312Z,7.00
2018-09-15T08:23:02.346Z,9.30
2018-09-15T08:24:02.369Z,8.20
2018-09-15T08:25:02.387Z,6.40
2018-09-15T08:26:02.425Z,7.00
2018-09-15T08:27:02.438Z,9.60
2018-09-15T08:28:02.465Z,6.90
2018-09-15T08:29:02.489Z,9.00
2018-09-15T08:30:02.562Z,8.60
2018-09-15T08:31:02.540Z,8.70
2018-09-15T08:32:02.603Z,8.60
2018-09-15T08:33:02.586Z,9.10
2018-09-15T08:34:02.602Z,9.00
2018-09-15T08:35:02.639Z,5.10
2018-09-15T08:36:02.653Z,10.70
2018-09-15T08:37:02.676Z,5.20
2018-09-15T08:38:02.697Z,6.50
2018-09-15T08:39:02.729Z,8.60
2018-09-15T08:40:02.750Z,8.10
2018-09-15T08:41:02.766Z,7.80
2018-09-15T08:42:02.798Z,5.90
2018-09-15T08:43:02.812Z,10.70
2018-09-15T08:44:02.841Z,9.00
2018-09-15T08:45:02.858Z,7.80
2018-09-15T08:46:02.885Z,7.90
2018-09-15T08:47:02.910Z,7.30
2018-09-15T08:48:02.929Z,7.20
2018-09-15T08:49:02.950Z,6.70
2018-09-15T08:50:02.976Z,8.00
2018-09-15T08:51:03.002Z,6.00
2018-09-15T08:52:03.019Z,6.30
2018-09-15T08:53:03.042Z,10.60
2018-09-15T08:54:03.073Z,6.40
2018-09-15T08:55:03.089Z,6.70
2018-09-15T08:56:03.127Z,5.60
2018-09-15T08:57:03.131Z,7.40
2018-09-15T08:58:03.161Z,8.80
2018-09-15T08:59:03.173Z,7.80
2018-09-15T09:00:03.209Z,9.10
2018-09-15T09:01:03.218Z,6.40
2018-09-15T09:02:03.265Z,7.60
2018-09-15T09:03:03.276Z,9.20
2018-09-15T09:04:03.295Z,5.40
2018-09-15T09:05:03.305Z,5.70
2018-09-15T09:06:03.333Z,7.90
2018-09-15T09:07:03.352Z,5.90
2018-09-15T09:08:03.384Z,7.00
2018-09-15T09:09:03.392Z,7.20
2018-09-15T09:10:03.430Z,5.70
2018-09-15T09:11:03.433Z,7.50
2018-09-15T09:12:03.462Z,7.20
2018-09-15T09:13:03.480Z,7.00
2018-09-15T09:14:03.502Z,8.40
2018-09-15T09:15:03.530Z,9.10
2018-09-15T09:16:03.544Z,6.50
2018-09-15T09:17:03.568Z,7.80
2018-09-15T09:18:03.591Z,12.10
2018-09-15T09:19:03.626Z,5.10
2018-09-15T09:20:03.668Z,9.90
2018-09-15T09:21:03.650Z,5.10
2018-09-15T09:22:03.673Z,5.80
2018-09-15T09:23:03.697Z,8.50
2018-09-15T09:24:03.718Z,7.10
2018-09-15T09:25:03.738Z,4.30
2018-09-15T09:26:03.840Z,8.90
2018-09-15T09:27:03.779Z,5.90
2018-09-15T09:28:03.802Z,7.40
2018-09-15T09:29:03.824Z,8.40
2018-09-15T09:30:03.851Z,6.20
2018-09-15T09:31:03.869Z,3.50
2018-09-15T09:32:03.892Z,4.40
2018-09-15T09:33:03.962Z,4.60
2018-09-15T09:34:03.936Z,8.50
2018-09-15T09:35:03.969Z,4.70
2018-09-15T09:36:03.981Z,11.30
2018-09-15T09:37:04.136Z,5.50
2018-09-15T09:38:04.023Z,6.80
2018-09-15T09:39:04.046Z,6.10
2018-09-15T09:40:04.064Z,5.70
2018-09-15T09:41:04.083Z,10.40
2018-09-15T09:42:04.113Z,6.40
2018-09-15T09:43:04.128Z,9.10
2018-09-15T09:44:04.146Z,6.20
2018-09-15T09:45:04.170Z,5.70
2018-09-15T09:46:04.193Z,11.30
2018-09-15T09:47:04.215Z,3.10
2018-09-15T09:48:04.282Z,4.40
2018-09-15T09:49:04.253Z,10.90
2018-09-15T09:50:04.277Z,5.70
2018-09-15T09:51:04.306Z,5.20
2018-09-15T09:52:04.455Z,5.20
2018-09-15T09:53:04.339Z,3.20
2018-09-15T09:54:04.365Z,5.50
2018-09-15T09:55:04.388Z,9.50
2018-09-15T09:56:04.408Z,9.30
2018-09-15T09:57:04.434Z,6.70
2018-09-15T09:58:04.447Z,6.80
2018-09-15T09:59:04.524Z,5.60
2018-09-15T10:00:04.505Z,4.70
2018-09-15T10:01:04.528Z,3.10
2018-09-15T10:02:04.560Z,6.20
2018-09-15T10:03:04.558Z,9.40
2018-09-15T10:04:04.573Z,3.90
2018-09-15T10:05:04.597Z,5.80
2018-09-15T10:06:04.621Z,5.60
2018-09-15T10:07:04.653Z,8.30
2018-09-15T10:08:04.661Z,4.60
2018-09-15T10:09:04.685Z,7.40
2018-09-15T10:10:04.720Z,6.40
2018-09-15T10:11:04.731Z,6.90
2018-09-15T10:12:04.751Z,6.70
2018-09-15T10:13:04.777Z,6.90
2018-09-15T10:14:04.792Z,4.50
2018-09-15T10:15:04.818Z,4.90
2018-09-15T10:16:04.838Z,4.80
2018-09-15T10:17:04.860Z,6.50
2018-09-15T10:18:04.886Z,7.80
2018-09-15T10:19:04.904Z,5.10
2018-09-15T10:20:04.914Z,5.50
2018-09-15T10:21:04.937Z,4.30
2018-09-15T10:22:04.981Z,6.20
2018-09-15T10:23:04.989Z,9.70
2018-09-15T10:24:05.000Z,6.10
2018-09-15T10:25:05.025Z,5.50
2018-09-15T10:26:05.044Z,3.20
2018-09-15T10:27:05.072Z,4.00
2018-09-15T10:28:05.085Z,6.00
2018-09-15T10:29:05.108Z,4.10
2018-09-15T10:30:05.132Z,6.40
2018-09-15T10:31:05.150Z,5.00
2018-09-15T10:32:05.220Z,4.00
2018-09-15T10:33:05.189Z,3.90
2018-09-15T10:34:05.218Z,6.00
2018-09-15T10:35:05.243Z,3.60
2018-09-15T10:36:05.251Z,4.30
2018-09-15T10:37:05.278Z,3.00
2018-09-15T10:38:05.298Z,2.00
2018-09-15T10:39:05.333Z,7.40
2018-09-15T10:40:05.340Z,3.10
2018-09-15T10:41:05.362Z,3.40
2018-09-15T10:42:05.378Z,6.10
2018-09-15T10:43:05.401Z,4.20
2018-09-15T10:44:05.421Z,3.80
2018-09-15T10:45:05.448Z,4.90
2018-09-15T10:46:05.478Z,2.30
2018-09-15T10:47:05.486Z,7.80
2018-09-15T10:48:05.514Z,3.00
2018-09-15T10:49:05.529Z,7.20
2018-09-15T10:50:05.550Z,3.20
2018-09-15T10:51:05.594Z,2.70
2018-09-15T10:52:05.596Z,2.30
2018-09-15T10:53:05.609Z,4.80
2018-09-15T10:54:05.643Z,5.90
2018-09-15T10:55:05.657Z,7.40
2018-09-15T10:56:05.676Z,5.20
2018-09-15T10:57:05.700Z,2.20
2018-09-15T10:58:05.727Z,4.40
2018-09-15T10:59:05.748Z,3.40
2018-09-15T11:00:05.772Z,4.90
2018-09-15T11:01:05.781Z,4.50
2018-09-15T11:02:05.809Z,6.30
2018-09-15T11:03:05.831Z,3.00
2018-09-15T11:04:05.855Z,2.90
2018-09-15T11:05:05.870Z,2.60
2018-09-15T11:06:05.892Z,3.10
2018-09-15T11:07:05.911Z,4.20
2018-09-15T11:08:05.936Z,7.70
2018-09-15T11:09:05.961Z,5.30
2018-09-15T11:10:05.976Z,4.40
2018-09-15T11:11:05.997Z,5.30
2018-09-15T11:12:06.021Z,3.00
2018-09-15T11:13:06.097Z,3.70
2018-09-15T11:14:06.061Z,3.70
2018-09-15T11:15:06.083Z,4.80
2018-09-15T11:16:06.112Z,4.00
2018-09-15T11:17:06.126Z,6.00
2018-09-15T11:18:06.149Z,6.50
2018-09-15T11:19:06.170Z,4.60
2018-09-15T11:20:06.205Z,5.50
2018-09-15T11:21:06.220Z,6.40
2018-09-15T11:22:06.235Z,4.50
2018-09-15T11:23:06.259Z,5.60
2018-09-15T11:24:06.281Z,4.70
2018-09-15T11:25:06.321Z,4.50
2018-09-15T11:26:06.325Z,5.10
2018-09-15T11:27:06.344Z,2.50
2018-09-15T11:28:06.370Z,6.50
2018-09-15T11:29:06.446Z,7.70
2018-09-15T11:30:06.414Z,4.00
2018-09-15T11:31:06.437Z,5.10
2018-09-15T11:32:06.459Z,3.10
2018-09-15T11:33:06.487Z,3.10
2018-09-15T11:34:06.523Z,5.70
2018-09-15T11:35:06.526Z,3.20
2018-09-15T11:36:06.544Z,5.50
2018-09-15T11:37:06.566Z,5.80
2018-09-15T11:38:06.597Z,2.60
2018-09-15T11:39:06.659Z,2.90
2018-09-15T11:40:06.634Z,2.60
2018-09-15T11:41:06.679Z,4.20
2018-09-15T11:42:06.676Z,4.30
2018-09-15T11:43:06.709Z,5.10
2018-09-15T11:44:06.723Z,4.00
2018-09-15T11:45:06.743Z,7.70
2018-09-15T11:46:06.768Z,6.80
2018-09-15T11:47:06.792Z,5.10
2018-09-15T11:48:06.811Z,3.10
2018-09-15T11:49:06.832Z,3.40
2018-09-15T11:50:06.872Z,3.40
2018-09-15T11:51:06.880Z,4.40
2018-09-15T11:52:06.906Z,2.10
2018-09-15T11:53:06.918Z,5.40
2018-09-15T11:54:06.951Z,3.30
2018-09-15T11:55:06.968Z,3.00
2018-09-15T11:56:06.990Z,6.40
2018-09-15T11:57:07.014Z,3.90
2018-09-15T11:58:07.036Z,1.90
2018-09-15T11:59:07.056Z,3.10
2018-09-15T12:00:07.115Z,2.40
2018-09-15T12:01:07.112Z,4.60
2018-09-15T12:02:07.164Z,2.20
2018-09-15T12:03:07.144Z,2.90
2018-09-15T12:04:07.169Z,3.90
2018-09-15T12:05:07.195Z,2.90
2018-09-15T12:06:07.218Z,4.70
2018-09-15T12:07:07.238Z,2.60
2018-09-15T12:08:07.252Z,5.40
2018-09-15T12:09:07.284Z,2.60
2018-09-15T12:10:07.302Z,2.50
2018-09-15T12:11:07.326Z,3.70
2018-09-15T12:12:07.344Z,1.90
2018-09-15T12:13:07.369Z,5.40
2018-09-15T12:14:07.420Z,5.90
2018-09-15T12:15:07.411Z,2.90
2018-09-15T12:16:07.438Z,2.70
2018-09-15T12:17:07.465Z,2.70
2018-09-15T12:18:07.480Z,2.70
2018-09-15T12:19:07.502Z,2.70
2018-09-15T12:20:07.527Z,3.40
2018-09-15T12:21:07.547Z,5.00
2018-09-15T12:22:07.577Z,2.80
2018-09-15T12:23:07.614Z,4.80
2018-09-15T12:24:07.613Z,2.30
2018-09-15T12:25:07.637Z,1.80
2018-09-15T12:26:07.655Z,3.30
2018-09-15T12:27:07.677Z,3.10
2018-09-15T12:28:07.706Z,2.20
2018-09-15T12:29:07.724Z,2.60
2018-09-15T12:30:07.741Z,4.30
2018-09-15T12:31:07.776Z,3.90
2018-09-15T12:32:07.786Z,4.30
2018-09-15T12:33:07.805Z,3.60
2018-09-15T12:34:07.830Z,4.70
2018-09-15T12:35:07.853Z,4.70
2018-09-15T12:36:07.874Z,4.00
2018-09-15T12:37:07.893Z,3.80
2018-09-15T12:38:07.914Z,4.50
2018-09-15T12:39:07.939Z,4.90
2018-09-15T12:40:07.961Z,4.90
2018-09-15T12:41:07.986Z,5.30
2018-09-15T12:42:08.002Z,7.90
2018-09-15T12:43:08.026Z,5.90
2018-09-15T12:44:08.041Z,5.80
2018-09-15T12:45:08.189Z,5.30
2018-09-15T12:46:08.083Z,6.10
2018-09-15T12:47:08.119Z,3.60
2018-09-15T12:48:08.129Z,5.00
2018-09-15T12:49:08.152Z,5.50
2018-09-15T12:50:08.171Z,7.40
2018-09-15T12:51:08.186Z,2.40
2018-09-15T12:52:08.222Z,6.90
2018-09-15T12:53:08.243Z,4.90
2018-09-15T12:54:08.253Z,7.10
2018-09-15T12:55:08.276Z,5.60
2018-09-15T12:56:08.292Z,5.20
2018-09-15T12:57:08.312Z,8.80
2018-09-15T12:58:08.337Z,8.20
2018-09-15T12:59:08.357Z,8.90
2018-09-15T13:00:08.378Z,5.00
2018-09-15T13:01:08.399Z,7.80
2018-09-15T13:02:08.417Z,7.50
2018-09-15T13:03:08.440Z,8.50